sensor_id;sensor_type;location;lat;lon;timestamp;pressure;altitude;pressure_sealevel;temperature;humidity
78932;BME280;68331;53.362;55.932;2023-09-18T00:01:01;100424.19;;;10.55;82.05
78932;BME280;68331;53.362;55.932;2023-09-18T00:03:28;100434.88;;;10.51;81.94
78932;BME280;68331;53.362;55.932;2023-09-18T00:05:54;100434.06;;;10.47;82.29
78932;BME280;68331;53.362;55.932;2023-09-18T00:08:20;100436.72;;;10.45;82.20
78932;BME280;68331;53.362;55.932;2023-09-18T00:10:54;100430.63;;;10.43;82.13
78932;BME280;68331;53.362;55.932;2023-09-18T00:13:21;100435.91;;;10.43;82.15
78932;BME280;68331;53.362;55.932;2023-09-18T00:15:47;100441.22;;;10.42;82.14
78932;BME280;68331;53.362;55.932;2023-09-18T00:18:16;100444.81;;;10.38;81.79
78932;BME280;68331;53.362;55.932;2023-09-18T00:20:44;100445.75;;;10.35;82.00
78932;BME280;68331;53.362;55.932;2023-09-18T00:23:12;100447.59;;;10.30;82.25
78932;BME280;68331;53.362;55.932;2023-09-18T00:25:38;100451.22;;;10.26;82.15
78932;BME280;68331;53.362;55.932;2023-09-18T00:28:06;100442.41;;;10.24;82.13
78932;BME280;68331;53.362;55.932;2023-09-18T00:30:33;100457.44;;;10.22;82.37
78932;BME280;68331;53.362;55.932;2023-09-18T00:33:00;100453.03;;;10.21;82.29
78932;BME280;68331;53.362;55.932;2023-09-18T00:35:26;100447.84;;;10.18;82.16
78932;BME280;68331;53.362;55.932;2023-09-18T00:37:53;100451.50;;;10.11;81.89
78932;BME280;68331;53.362;55.932;2023-09-18T00:40:20;100455.97;;;10.07;82.21
78932;BME280;68331;53.362;55.932;2023-09-18T00:42:46;100456.88;;;10.06;82.13
78932;BME280;68331;53.362;55.932;2023-09-18T00:45:13;100443.75;;;10.03;81.88
78932;BME280;68331;53.362;55.932;2023-09-18T00:47:40;100444.66;;;10.00;82.09
78932;BME280;68331;53.362;55.932;2023-09-18T00:50:08;100445.59;;;9.99;82.03
78932;BME280;68331;53.362;55.932;2023-09-18T00:52:38;100444.66;;;10.02;81.83
78932;BME280;68331;53.362;55.932;2023-09-18T00:55:05;100441.13;;;10.01;81.77
78932;BME280;68331;53.362;55.932;2023-09-18T00:57:34;100433.31;;;9.97;81.93
78932;BME280;68331;53.362;55.932;2023-09-18T01:00:02;100437.72;;;9.96;81.95
78932;BME280;68331;53.362;55.932;2023-09-18T01:02:32;100441.16;;;10.00;82.20
78932;BME280;68331;53.362;55.932;2023-09-18T01:04:58;100437.66;;;9.99;82.25
78932;BME280;68331;53.362;55.932;2023-09-18T01:07:25;100434.97;;;10.02;82.56
78932;BME280;68331;53.362;55.932;2023-09-18T01:09:52;100441.97;;;10.05;82.56
78932;BME280;68331;53.362;55.932;2023-09-18T01:15:02;100447.91;;;10.15;82.47
78932;BME280;68331;53.362;55.932;2023-09-18T01:17:36;100440.00;;;10.15;82.49
78932;BME280;68331;53.362;55.932;2023-09-18T01:20:09;100440.81;;;10.17;82.62
78932;BME280;68331;53.362;55.932;2023-09-18T01:22:36;100439.94;;;10.18;82.72
78932;BME280;68331;53.362;55.932;2023-09-18T01:25:02;100453.03;;;10.21;82.69
78932;BME280;68331;53.362;55.932;2023-09-18T01:27:31;100452.16;;;10.20;82.82
78932;BME280;68331;53.362;55.932;2023-09-18T01:29:58;100453.09;;;10.19;82.85
78932;BME280;68331;53.362;55.932;2023-09-18T01:32:25;100453.13;;;10.18;83.08
78932;BME280;68331;53.362;55.932;2023-09-18T01:34:56;100453.94;;;10.20;82.86
78932;BME280;68331;53.362;55.932;2023-09-18T01:37:26;100453.03;;;10.21;82.96
78932;BME280;68331;53.362;55.932;2023-09-18T01:39:53;100451.38;;;10.17;82.83
78932;BME280;68331;53.362;55.932;2023-09-18T01:42:20;100450.50;;;10.16;82.96
78932;BME280;68331;53.362;55.932;2023-09-18T01:44:47;100447.97;;;10.12;82.93
78932;BME280;68331;53.362;55.932;2023-09-18T01:47:17;100449.69;;;10.13;83.08
78932;BME280;68331;53.362;55.932;2023-09-18T01:49:44;100457.56;;;10.14;83.35
78932;BME280;68331;53.362;55.932;2023-09-18T01:52:12;100457.63;;;10.13;83.00
78932;BME280;68331;53.362;55.932;2023-09-18T01:54:38;100460.25;;;10.13;82.92
78932;BME280;68331;53.362;55.932;2023-09-18T01:57:06;100457.66;;;10.10;82.94
78932;BME280;68331;53.362;55.932;2023-09-18T01:59:35;100453.31;;;10.09;83.28
78932;BME280;68331;53.362;55.932;2023-09-18T02:02:02;100450.69;;;10.07;83.13
78932;BME280;68331;53.362;55.932;2023-09-18T02:04:32;100456.81;;;10.09;83.27
78932;BME280;68331;53.362;55.932;2023-09-18T02:06:59;100462.91;;;10.11;83.22
78932;BME280;68331;53.362;55.932;2023-09-18T02:09:25;100458.47;;;10.13;83.19
78932;BME280;68331;53.362;55.932;2023-09-18T02:11:52;100455.75;;;10.18;82.88
78932;BME280;68331;53.362;55.932;2023-09-18T02:14:20;100464.44;;;10.23;82.79
78932;BME280;68331;53.362;55.932;2023-09-18T02:16:46;100461.00;;;10.19;83.08
78932;BME280;68331;53.362;55.932;2023-09-18T02:19:13;100461.00;;;10.19;83.04
78932;BME280;68331;53.362;55.932;2023-09-18T02:21:41;100468.00;;;10.20;82.99
78932;BME280;68331;53.362;55.932;2023-09-18T02:24:09;100460.94;;;10.22;83.06
78932;BME280;68331;53.362;55.932;2023-09-18T02:26:35;100453.84;;;10.26;82.93
78932;BME280;68331;53.362;55.932;2023-09-18T02:29:06;100467.75;;;10.34;82.58
78932;BME280;68331;53.362;55.932;2023-09-18T02:31:32;100460.66;;;10.38;82.45
78932;BME280;68331;53.362;55.932;2023-09-18T02:33:59;100457.03;;;10.42;82.53
78932;BME280;68331;53.362;55.932;2023-09-18T02:36:25;100456.91;;;10.48;82.26
78932;BME280;68331;53.362;55.932;2023-09-18T02:38:52;100466.47;;;10.52;82.21
78932;BME280;68331;53.362;55.932;2023-09-18T02:41:18;100476.97;;;10.55;82.07
78932;BME280;68331;53.362;55.932;2023-09-18T02:43:46;100469.91;;;10.57;82.15
78932;BME280;68331;53.362;55.932;2023-09-18T02:46:13;100480.34;;;10.62;82.04
78932;BME280;68331;53.362;55.932;2023-09-18T02:48:39;100472.50;;;10.59;81.97
78932;BME280;68331;53.362;55.932;2023-09-18T02:51:06;100475.13;;;10.60;82.12
78932;BME280;68331;53.362;55.932;2023-09-18T02:53:33;100479.41;;;10.64;82.51
78932;BME280;68331;53.362;55.932;2023-09-18T02:55:59;100475.84;;;10.67;82.23
78932;BME280;68331;53.362;55.932;2023-09-18T02:58:28;100471.41;;;10.69;82.56
78932;BME280;68331;53.362;55.932;2023-09-18T03:00:57;100480.06;;;10.76;82.70
78932;BME280;68331;53.362;55.932;2023-09-18T03:03:29;100475.53;;;10.81;82.26
78932;BME280;68331;53.362;55.932;2023-09-18T03:06:04;100470.09;;;10.87;82.37
78932;BME280;68331;53.362;55.932;2023-09-18T03:08:31;100476.09;;;10.95;82.30
78932;BME280;68331;53.362;55.932;2023-09-18T03:10:58;100473.25;;;11.04;82.22
78932;BME280;68331;53.362;55.932;2023-09-18T03:13:26;100471.25;;;11.12;82.29
78932;BME280;68331;53.362;55.932;2023-09-18T03:15:54;100470.25;;;11.18;82.06
78932;BME280;68331;53.362;55.932;2023-09-18T03:18:22;100470.91;;;11.26;81.76
78932;BME280;68331;53.362;55.932;2023-09-18T03:20:48;100473.38;;;11.34;81.77
78932;BME280;68331;53.362;55.932;2023-09-18T03:23:14;100473.25;;;11.40;81.38
78932;BME280;68331;53.362;55.932;2023-09-18T03:25:40;100468.75;;;11.44;81.36
78932;BME280;68331;53.362;55.932;2023-09-18T03:28:07;100473.75;;;11.54;81.29
78932;BME280;68331;53.362;55.932;2023-09-18T03:30:33;100476.13;;;11.65;80.73
78932;BME280;68331;53.362;55.932;2023-09-18T03:33:00;100455.09;;;11.60;80.67
78932;BME280;68331;53.362;55.932;2023-09-18T03:35:31;100471.47;;;11.75;80.51
78932;BME280;68331;53.362;55.932;2023-09-18T03:38:11;100469.53;;;11.81;80.21
78932;BME280;68331;53.362;55.932;2023-09-18T03:40:38;100461.38;;;11.91;79.99
78932;BME280;68331;53.362;55.932;2023-09-18T03:43:04;100463.84;;;11.97;79.66
78932;BME280;68331;53.362;55.932;2023-09-18T03:45:31;100465.28;;;12.08;79.57
78932;BME280;68331;53.362;55.932;2023-09-18T03:47:57;100464.16;;;12.17;78.97
78932;BME280;68331;53.362;55.932;2023-09-18T03:50:23;100461.34;;;12.23;78.74
78932;BME280;68331;53.362;55.932;2023-09-18T03:53:00;100469.00;;;12.32;78.56
78932;BME280;68331;53.362;55.932;2023-09-18T03:55:26;100464.44;;;12.38;78.39
78932;BME280;68331;53.362;55.932;2023-09-18T03:57:53;100465.03;;;12.47;77.99
78932;BME280;68331;53.362;55.932;2023-09-18T04:00:21;100472.75;;;12.55;77.93
78932;BME280;68331;53.362;55.932;2023-09-18T04:02:47;100473.44;;;12.62;77.71
78932;BME280;68331;53.362;55.932;2023-09-18T04:05:13;100474.94;;;12.70;77.66
78932;BME280;68331;53.362;55.932;2023-09-18T04:07:38;100473.69;;;12.82;77.21
78932;BME280;68331;53.362;55.932;2023-09-18T04:10:05;100468.84;;;12.96;76.66
78932;BME280;68331;53.362;55.932;2023-09-18T04:12:33;100456.41;;;13.26;75.87
78932;BME280;68331;53.362;55.932;2023-09-18T04:15:00;100467.31;;;13.44;75.09
78932;BME280;68331;53.362;55.932;2023-09-18T04:17:26;100460.03;;;13.76;73.88
78932;BME280;68331;53.362;55.932;2023-09-18T04:19:52;100455.91;;;13.92;73.03
78932;BME280;68331;53.362;55.932;2023-09-18T04:22:18;100456.94;;;13.88;72.90
78932;BME280;68331;53.362;55.932;2023-09-18T04:24:44;100450.00;;;13.84;73.06
78932;BME280;68331;53.362;55.932;2023-09-18T04:27:10;100458.13;;;14.04;73.07
78932;BME280;68331;53.362;55.932;2023-09-18T04:29:37;100446.47;;;14.08;72.74
78932;BME280;68331;53.362;55.932;2023-09-18T04:32:04;100446.59;;;14.05;72.97
78932;BME280;68331;53.362;55.932;2023-09-18T04:34:31;100446.44;;;14.33;72.01
78932;BME280;68331;53.362;55.932;2023-09-18T04:36:58;100448.75;;;14.42;71.59
78932;BME280;68331;53.362;55.932;2023-09-18T04:39:24;100453.88;;;14.47;71.31
78932;BME280;68331;53.362;55.932;2023-09-18T04:41:51;100457.34;;;14.49;71.31
78932;BME280;68331;53.362;55.932;2023-09-18T04:44:17;100446.16;;;14.64;70.92
78932;BME280;68331;53.362;55.932;2023-09-18T04:46:44;100444.72;;;15.22;70.07
78932;BME280;68331;53.362;55.932;2023-09-18T04:49:11;100442.69;;;16.31;66.94
78932;BME280;68331;53.362;55.932;2023-09-18T04:51:38;100435.84;;;16.44;65.74
78932;BME280;68331;53.362;55.932;2023-09-18T04:54:05;100444.75;;;16.24;66.16
78932;BME280;68331;53.362;55.932;2023-09-18T04:56:33;100435.41;;;15.95;66.90
78932;BME280;68331;53.362;55.932;2023-09-18T04:59:00;100433.16;;;15.65;67.67
78932;BME280;68331;53.362;55.932;2023-09-18T05:01:28;100438.72;;;15.59;68.24
78932;BME280;68331;53.362;55.932;2023-09-18T05:03:56;100432.38;;;15.84;67.62
78932;BME280;68331;53.362;55.932;2023-09-18T05:06:22;100432.88;;;15.92;66.81
78932;BME280;68331;53.362;55.932;2023-09-18T05:08:48;100443.00;;;16.04;66.69
78932;BME280;68331;53.362;55.932;2023-09-18T05:11:14;100439.47;;;16.03;66.67
78932;BME280;68331;53.362;55.932;2023-09-18T05:13:41;100436.53;;;16.10;66.86
78932;BME280;68331;53.362;55.932;2023-09-18T05:16:07;100439.00;;;16.71;65.33
78932;BME280;68331;53.362;55.932;2023-09-18T05:18:33;100435.25;;;17.30;63.04
78932;BME280;68331;53.362;55.932;2023-09-18T05:20:59;100431.72;;;17.47;62.35
78932;BME280;68331;53.362;55.932;2023-09-18T05:23:25;100438.84;;;17.64;61.46
78932;BME280;68331;53.362;55.932;2023-09-18T05:25:52;100419.97;;;17.34;62.23
78932;BME280;68331;53.362;55.932;2023-09-18T05:28:19;100432.19;;;17.73;61.73
78932;BME280;68331;53.362;55.932;2023-09-18T05:30:44;100437.16;;;17.80;61.09
78932;BME280;68331;53.362;55.932;2023-09-18T05:33:10;100427.09;;;17.51;61.40
78932;BME280;68331;53.362;55.932;2023-09-18T05:35:44;100434.66;;;17.42;62.00
78932;BME280;68331;53.362;55.932;2023-09-18T05:38:11;100434.09;;;17.36;62.56
78932;BME280;68331;53.362;55.932;2023-09-18T05:40:40;100429.31;;;17.42;62.91
78932;BME280;68331;53.362;55.932;2023-09-18T05:43:06;100434.34;;;17.49;62.36
78932;BME280;68331;53.362;55.932;2023-09-18T05:45:33;100439.19;;;17.75;61.65
78932;BME280;68331;53.362;55.932;2023-09-18T05:48:04;100425.81;;;18.75;58.85
78932;BME280;68331;53.362;55.932;2023-09-18T05:50:31;100423.66;;;19.43;56.46
78932;BME280;68331;53.362;55.932;2023-09-18T05:52:58;100418.09;;;19.91;55.38
78932;BME280;68331;53.362;55.932;2023-09-18T05:55:35;100416.75;;;20.70;53.29
78932;BME280;68331;53.362;55.932;2023-09-18T05:58:02;100413.41;;;21.47;51.91
78932;BME280;68331;53.362;55.932;2023-09-18T06:00:32;100408.63;;;21.78;51.17
78932;BME280;68331;53.362;55.932;2023-09-18T06:02:59;100409.63;;;22.52;49.54
78932;BME280;68331;53.362;55.932;2023-09-18T06:05:25;100411.19;;;23.28;47.22
78932;BME280;68331;53.362;55.932;2023-09-18T06:07:51;100405.66;;;23.54;46.75
78932;BME280;68331;53.362;55.932;2023-09-18T06:10:17;100397.56;;;23.54;46.38
78932;BME280;68331;53.362;55.932;2023-09-18T06:12:46;100394.81;;;23.31;46.26
78932;BME280;68331;53.362;55.932;2023-09-18T06:15:13;100399.16;;;23.80;45.32
78932;BME280;68331;53.362;55.932;2023-09-18T06:17:42;100391.19;;;24.24;44.39
78932;BME280;68331;53.362;55.932;2023-09-18T06:20:09;100389.94;;;24.05;44.77
78932;BME280;68331;53.362;55.932;2023-09-18T06:22:37;100389.34;;;24.02;44.84
78932;BME280;68331;53.362;55.932;2023-09-18T06:25:05;100387.34;;;24.82;43.70
78932;BME280;68331;53.362;55.932;2023-09-18T06:27:34;100377.78;;;26.15;40.14
78932;BME280;68331;53.362;55.932;2023-09-18T06:30:03;100380.28;;;27.66;37.39
78932;BME280;68331;53.362;55.932;2023-09-18T06:32:30;100373.00;;;29.50;34.34
78932;BME280;68331;53.362;55.932;2023-09-18T06:34:56;100368.63;;;30.94;31.87
78932;BME280;68331;53.362;55.932;2023-09-18T06:37:24;100365.28;;;32.69;29.08
78932;BME280;68331;53.362;55.932;2023-09-18T06:39:51;100357.25;;;34.12;26.83
78932;BME280;68331;53.362;55.932;2023-09-18T06:42:18;100355.09;;;35.59;24.42
78932;BME280;68331;53.362;55.932;2023-09-18T06:44:44;100359.81;;;36.96;22.77
78932;BME280;68331;53.362;55.932;2023-09-18T06:47:10;100343.25;;;38.15;21.26
78932;BME280;68331;53.362;55.932;2023-09-18T06:49:36;100349.13;;;39.16;19.89
78932;BME280;68331;53.362;55.932;2023-09-18T06:52:05;100348.00;;;39.98;18.50
78932;BME280;68331;53.362;55.932;2023-09-18T06:54:32;100338.19;;;40.21;17.98
78932;BME280;68331;53.362;55.932;2023-09-18T06:56:58;100340.78;;;40.16;17.41
78932;BME280;68331;53.362;55.932;2023-09-18T06:59:24;100338.38;;;39.58;17.46
78932;BME280;68331;53.362;55.932;2023-09-18T07:01:50;100347.69;;;38.75;18.82
78932;BME280;68331;53.362;55.932;2023-09-18T07:04:16;100333.06;;;38.74;18.36
78932;BME280;68331;53.362;55.932;2023-09-18T07:06:42;100334.63;;;37.85;18.92
78932;BME280;68331;53.362;55.932;2023-09-18T07:09:08;100336.09;;;35.36;21.86
78932;BME280;68331;53.362;55.932;2023-09-18T07:11:37;100331.19;;;33.10;23.93
78932;BME280;68331;53.362;55.932;2023-09-18T07:14:04;100329.81;;;31.16;26.94
78932;BME280;68331;53.362;55.932;2023-09-18T07:16:32;100329.31;;;29.69;28.77
78932;BME280;68331;53.362;55.932;2023-09-18T07:19:00;100330.50;;;28.41;30.31
78932;BME280;68331;53.362;55.932;2023-09-18T07:21:27;100323.75;;;27.14;32.03
78932;BME280;68331;53.362;55.932;2023-09-18T07:23:55;100323.16;;;26.21;33.23
78932;BME280;68331;53.362;55.932;2023-09-18T07:26:21;100330.94;;;25.54;34.13
78932;BME280;68331;53.362;55.932;2023-09-18T07:28:46;100337.50;;;24.87;35.39
78932;BME280;68331;53.362;55.932;2023-09-18T07:31:14;100326.50;;;24.12;36.40
78932;BME280;68331;53.362;55.932;2023-09-18T07:33:40;100337.16;;;23.80;37.31
78932;BME280;68331;53.362;55.932;2023-09-18T07:36:07;100332.31;;;23.50;37.95
78932;BME280;68331;53.362;55.932;2023-09-18T07:38:35;100315.97;;;23.29;37.99
78932;BME280;68331;53.362;55.932;2023-09-18T07:41:03;100321.13;;;23.32;38.61
78932;BME280;68331;53.362;55.932;2023-09-18T07:43:29;100307.66;;;23.32;38.13
78932;BME280;68331;53.362;55.932;2023-09-18T07:45:55;100326.06;;;23.50;38.84
78932;BME280;68331;53.362;55.932;2023-09-18T07:48:22;100318.84;;;23.50;37.97
78932;BME280;68331;53.362;55.932;2023-09-18T07:50:48;100323.84;;;23.43;37.09
78932;BME280;68331;53.362;55.932;2023-09-18T07:53:15;100317.72;;;23.41;36.71
78932;BME280;68331;53.362;55.932;2023-09-18T07:55:42;100316.38;;;23.36;36.83
78932;BME280;68331;53.362;55.932;2023-09-18T07:58:08;100316.97;;;23.28;36.59
78932;BME280;68331;53.362;55.932;2023-09-18T08:00:35;100317.22;;;23.36;37.18
78932;BME280;68331;53.362;55.932;2023-09-18T08:03:01;100312.81;;;23.35;37.28
78932;BME280;68331;53.362;55.932;2023-09-18T08:05:27;100311.72;;;23.27;37.78
78932;BME280;68331;53.362;55.932;2023-09-18T08:07:54;100311.41;;;23.07;38.70
78932;BME280;68331;53.362;55.932;2023-09-18T08:10:23;100308.44;;;22.99;38.99
78932;BME280;68331;53.362;55.932;2023-09-18T08:12:49;100307.69;;;22.97;39.27
78932;BME280;68331;53.362;55.932;2023-09-18T08:15:20;100299.19;;;22.90;39.08
78932;BME280;68331;53.362;55.932;2023-09-18T08:17:47;100294.97;;;22.99;39.19
78932;BME280;68331;53.362;55.932;2023-09-18T08:20:15;100295.38;;;23.06;38.82
78932;BME280;68331;53.362;55.932;2023-09-18T08:22:42;100293.72;;;22.92;38.87
78932;BME280;68331;53.362;55.932;2023-09-18T08:25:09;100291.66;;;22.95;38.70
78932;BME280;68331;53.362;55.932;2023-09-18T08:27:40;100286.38;;;22.94;38.15
78932;BME280;68331;53.362;55.932;2023-09-18T08:30:12;100278.88;;;23.10;38.37
78932;BME280;68331;53.362;55.932;2023-09-18T08:32:41;100282.19;;;23.14;38.52
78932;BME280;68331;53.362;55.932;2023-09-18T08:35:08;100273.84;;;23.06;39.02
78932;BME280;68331;53.362;55.932;2023-09-18T08:37:34;100285.34;;;23.08;38.23
78932;BME280;68331;53.362;55.932;2023-09-18T08:40:00;100270.53;;;23.02;37.69
78932;BME280;68331;53.362;55.932;2023-09-18T08:42:38;100276.53;;;23.06;38.00
78932;BME280;68331;53.362;55.932;2023-09-18T08:45:07;100275.94;;;23.13;38.19
78932;BME280;68331;53.362;55.932;2023-09-18T08:47:40;100273.13;;;23.15;37.87
78932;BME280;68331;53.362;55.932;2023-09-18T08:50:08;100270.94;;;23.20;37.75
78932;BME280;68331;53.362;55.932;2023-09-18T08:52:35;100264.31;;;23.13;37.80
78932;BME280;68331;53.362;55.932;2023-09-18T08:55:03;100274.50;;;23.20;37.91
78932;BME280;68331;53.362;55.932;2023-09-18T08:57:30;100266.91;;;23.26;38.25
78932;BME280;68331;53.362;55.932;2023-09-18T08:59:59;100261.75;;;23.23;38.18
78932;BME280;68331;53.362;55.932;2023-09-18T09:02:33;100258.81;;;23.26;37.97
78932;BME280;68331;53.362;55.932;2023-09-18T09:05:00;100258.44;;;23.19;37.93
78932;BME280;68331;53.362;55.932;2023-09-18T09:07:26;100253.38;;;23.03;38.31
78932;BME280;68331;53.362;55.932;2023-09-18T09:09:54;100248.13;;;23.02;37.77
78932;BME280;68331;53.362;55.932;2023-09-18T09:15:22;100249.28;;;23.21;37.88
78932;BME280;68331;53.362;55.932;2023-09-18T09:18:01;100246.69;;;23.09;38.24
78932;BME280;68331;53.362;55.932;2023-09-18T09:20:28;100241.44;;;23.07;37.63
78932;BME280;68331;53.362;55.932;2023-09-18T09:23:00;100242.28;;;23.19;37.70
78932;BME280;68331;53.362;55.932;2023-09-18T09:25:28;100235.56;;;23.25;37.37
78932;BME280;68331;53.362;55.932;2023-09-18T09:27:58;100242.19;;;23.32;36.84
78932;BME280;68331;53.362;55.932;2023-09-18T09:30:26;100234.25;;;23.41;36.77
78932;BME280;68331;53.362;55.932;2023-09-18T09:32:55;100233.88;;;23.46;35.96
78932;BME280;68331;53.362;55.932;2023-09-18T09:35:28;100229.00;;;23.40;35.79
78932;BME280;68331;53.362;55.932;2023-09-18T09:37:59;100222.97;;;23.48;35.17
78932;BME280;68331;53.362;55.932;2023-09-18T09:40:28;100225.56;;;23.49;35.48
78932;BME280;68331;53.362;55.932;2023-09-18T09:42:55;100222.72;;;23.51;36.05
78932;BME280;68331;53.362;55.932;2023-09-18T09:45:35;100219.31;;;23.37;36.20
78932;BME280;68331;53.362;55.932;2023-09-18T09:48:05;100230.06;;;23.37;35.87
78932;BME280;68331;53.362;55.932;2023-09-18T09:50:33;100220.53;;;23.44;35.23
78932;BME280;68331;53.362;55.932;2023-09-18T09:53:00;100215.50;;;23.29;34.78
78932;BME280;68331;53.362;55.932;2023-09-18T09:55:31;100216.34;;;23.18;35.16
78932;BME280;68331;53.362;55.932;2023-09-18T09:58:03;100209.88;;;23.20;35.23
78932;BME280;68331;53.362;55.932;2023-09-18T10:03:34;100213.94;;;23.37;35.03
78932;BME280;68331;53.362;55.932;2023-09-18T10:06:02;100209.66;;;23.46;35.02
78932;BME280;68331;53.362;55.932;2023-09-18T10:08:33;100211.13;;;23.50;34.74
78932;BME280;68331;53.362;55.932;2023-09-18T10:11:13;100208.53;;;23.60;34.85
78932;BME280;68331;53.362;55.932;2023-09-18T10:14:04;100196.53;;;23.64;35.81
78932;BME280;68331;53.362;55.932;2023-09-18T10:16:35;100204.50;;;23.77;35.26
78932;BME280;68331;53.362;55.932;2023-09-18T10:19:07;100203.66;;;23.87;35.07
78932;BME280;68331;53.362;55.932;2023-09-18T10:24:33;100197.56;;;23.74;35.34
78932;BME280;68331;53.362;55.932;2023-09-18T10:27:01;100189.31;;;23.53;35.47
78932;BME280;68331;53.362;55.932;2023-09-18T10:29:32;100192.25;;;23.50;34.85
78932;BME280;68331;53.362;55.932;2023-09-18T10:31:58;100181.63;;;23.49;35.19
78932;BME280;68331;53.362;55.932;2023-09-18T10:34:25;100184.53;;;23.57;35.18
78932;BME280;68331;53.362;55.932;2023-09-18T10:36:53;100177.69;;;23.53;35.56
78932;BME280;68331;53.362;55.932;2023-09-18T10:39:21;100175.25;;;23.50;34.94
78932;BME280;68331;53.362;55.932;2023-09-18T10:41:51;100178.78;;;23.61;35.12
78932;BME280;68331;53.362;55.932;2023-09-18T10:44:18;100173.66;;;23.70;35.20
78932;BME280;68331;53.362;55.932;2023-09-18T10:46:46;100184.06;;;23.74;34.50
78932;BME280;68331;53.362;55.932;2023-09-18T10:49:13;100168.63;;;23.76;34.34
78932;BME280;68331;53.362;55.932;2023-09-18T10:51:40;100170.22;;;23.79;34.59
78932;BME280;68331;53.362;55.932;2023-09-18T10:54:09;100164.22;;;23.75;34.75
78932;BME280;68331;53.362;55.932;2023-09-18T10:56:36;100166.06;;;23.75;35.03
78932;BME280;68331;53.362;55.932;2023-09-18T10:59:05;100166.66;;;23.78;34.21
78932;BME280;68331;53.362;55.932;2023-09-18T11:01:34;100161.75;;;23.83;33.98
78932;BME280;68331;53.362;55.932;2023-09-18T11:04:06;100154.66;;;23.82;34.69
78932;BME280;68331;53.362;55.932;2023-09-18T11:09:25;100151.25;;;23.69;34.00
78932;BME280;68331;53.362;55.932;2023-09-18T11:11:53;100147.72;;;23.69;33.90
78932;BME280;68331;53.362;55.932;2023-09-18T11:14:57;100147.31;;;23.73;33.30
78932;BME280;68331;53.362;55.932;2023-09-18T11:17:32;100147.22;;;23.75;33.08
78932;BME280;68331;53.362;55.932;2023-09-18T11:20:18;100136.53;;;23.62;33.03
78932;BME280;68331;53.362;55.932;2023-09-18T11:22:49;100130.41;;;23.60;33.11
78932;BME280;68331;53.362;55.932;2023-09-18T11:28:05;100131.41;;;23.59;34.68
78932;BME280;68331;53.362;55.932;2023-09-18T11:30:35;100142.31;;;23.46;34.29
78932;BME280;68331;53.362;55.932;2023-09-18T11:33:06;100134.13;;;23.25;34.62
78932;BME280;68331;53.362;55.932;2023-09-18T11:35:38;100136.22;;;23.10;34.37
78932;BME280;68331;53.362;55.932;2023-09-18T11:38:16;100136.56;;;23.06;34.92
78932;BME280;68331;53.362;55.932;2023-09-18T11:40:42;100135.34;;;23.10;34.81
78932;BME280;68331;53.362;55.932;2023-09-18T11:43:25;100133.00;;;23.16;34.58
78932;BME280;68331;53.362;55.932;2023-09-18T11:45:54;100133.53;;;23.21;34.97
78932;BME280;68331;53.362;55.932;2023-09-18T11:48:22;100124.69;;;23.19;35.30
78932;BME280;68331;53.362;55.932;2023-09-18T11:50:51;100127.03;;;23.24;35.56
78932;BME280;68331;53.362;55.932;2023-09-18T11:53:18;100123.84;;;23.19;35.88
78932;BME280;68331;53.362;55.932;2023-09-18T11:55:51;100117.75;;;23.17;36.17
78932;BME280;68331;53.362;55.932;2023-09-18T11:58:17;100111.25;;;23.08;35.30
78932;BME280;68331;53.362;55.932;2023-09-18T12:00:53;100118.72;;;23.05;34.66
78932;BME280;68331;53.362;55.932;2023-09-18T12:03:22;100117.75;;;23.06;34.07
78932;BME280;68331;53.362;55.932;2023-09-18T12:06:00;100118.22;;;23.00;34.06
78932;BME280;68331;53.362;55.932;2023-09-18T12:08:28;100112.31;;;22.83;35.03
78932;BME280;68331;53.362;55.932;2023-09-18T12:10:58;100116.94;;;22.81;35.25
78932;BME280;68331;53.362;55.932;2023-09-18T12:13:25;100116.19;;;22.68;35.31
78932;BME280;68331;53.362;55.932;2023-09-18T12:15:59;100113.97;;;22.62;35.63
78932;BME280;68331;53.362;55.932;2023-09-18T12:18:28;100116.44;;;22.54;34.97
78932;BME280;68331;53.362;55.932;2023-09-18T12:20:56;100117.50;;;22.51;35.24
78932;BME280;68331;53.362;55.932;2023-09-18T12:23:25;100110.81;;;22.57;35.73
78932;BME280;68331;53.362;55.932;2023-09-18T12:25:59;100119.34;;;22.62;36.18
78932;BME280;68331;53.362;55.932;2023-09-18T12:28:26;100117.03;;;22.57;35.73
78932;BME280;68331;53.362;55.932;2023-09-18T12:30:55;100118.25;;;22.53;34.37
78932;BME280;68331;53.362;55.932;2023-09-18T12:33:22;100122.13;;;22.49;34.56
78932;BME280;68331;53.362;55.932;2023-09-18T12:35:50;100103.41;;;22.36;35.22
78932;BME280;68331;53.362;55.932;2023-09-18T12:38:19;100110.38;;;22.39;35.68
78932;BME280;68331;53.362;55.932;2023-09-18T12:40:50;100111.09;;;22.29;35.82
78932;BME280;68331;53.362;55.932;2023-09-18T12:43:17;100099.72;;;22.26;36.61
78932;BME280;68331;53.362;55.932;2023-09-18T12:45:45;100104.84;;;22.18;37.11
78932;BME280;68331;53.362;55.932;2023-09-18T12:48:14;100102.59;;;22.12;37.87
78932;BME280;68331;53.362;55.932;2023-09-18T12:50:40;100100.47;;;22.04;37.72
78932;BME280;68331;53.362;55.932;2023-09-18T12:53:11;100101.91;;;21.97;37.50
78932;BME280;68331;53.362;55.932;2023-09-18T12:55:39;100100.53;;;21.91;37.80
78932;BME280;68331;53.362;55.932;2023-09-18T12:58:10;100099.03;;;21.87;37.72
78932;BME280;68331;53.362;55.932;2023-09-18T13:00:36;100101.97;;;21.84;38.05
78932;BME280;68331;53.362;55.932;2023-09-18T13:03:03;100102.53;;;21.76;38.80